Terminal Aerodrome Forecast
Issued by NWS

Home | Current Version | Previous Version | Graphics & Text | Print | Product List | Glossary On
Versions: 1 2 3 4 5 6 7 8 9 10 11 12 13 14 15 16 17 18 19 20 21 22 23
000
FTUS43 KBIS 270300 AAA
TAFMOT
TAF AMD
KMOT 270316Z 2703/2724 31012KT P6SM SCT090
     FM270900 34010KT P6SM BKN025
     FM271700 33011KT P6SM SCT050
     FM272100 35009KT P6SM SCT230=

USA.gov is the U.S. government's official web portal to all federal, state and local government web resources and services.